sensor_id;sensor_type;location;lat;lon;timestamp;temperature;humidity
1878;DHT22;939;51.426;6.972;2023-06-22T00:01:20;22.30;99.90
1878;DHT22;939;51.426;6.972;2023-06-22T00:03:48;22.30;99.90
1878;DHT22;939;51.426;6.972;2023-06-22T00:06:16;22.40;99.90
1878;DHT22;939;51.426;6.972;2023-06-22T00:08:43;22.40;99.90
1878;DHT22;939;51.426;6.972;2023-06-22T00:11:10;22.40;99.90
1878;DHT22;939;51.426;6.972;2023-06-22T00:13:37;22.40;99.90
1878;DHT22;939;51.426;6.972;2023-06-22T00:16:04;22.40;99.90
1878;DHT22;939;51.426;6.972;2023-06-22T00:18:31;22.40;99.90
1878;DHT22;939;51.426;6.972;2023-06-22T00:20:59;22.40;99.90
1878;DHT22;939;51.426;6.972;2023-06-22T00:23:28;22.50;99.90
1878;DHT22;939;51.426;6.972;2023-06-22T00:25:59;22.50;99.90
1878;DHT22;939;51.426;6.972;2023-06-22T00:28:26;22.50;99.90
1878;DHT22;939;51.426;6.972;2023-06-22T00:30:54;22.50;99.90
1878;DHT22;939;51.426;6.972;2023-06-22T00:33:24;22.50;99.90
1878;DHT22;939;51.426;6.972;2023-06-22T00:35:55;22.50;99.90
1878;DHT22;939;51.426;6.972;2023-06-22T00:38:22;22.50;99.90
1878;DHT22;939;51.426;6.972;2023-06-22T00:40:51;22.50;99.90
1878;DHT22;939;51.426;6.972;2023-06-22T00:43:21;22.50;99.90
1878;DHT22;939;51.426;6.972;2023-06-22T00:46:05;22.50;99.90
1878;DHT22;939;51.426;6.972;2023-06-22T00:48:46;22.50;99.90
1878;DHT22;939;51.426;6.972;2023-06-22T00:51:22;22.50;99.90
1878;DHT22;939;51.426;6.972;2023-06-22T00:53:50;22.50;99.90
1878;DHT22;939;51.426;6.972;2023-06-22T00:56:19;22.50;99.90
1878;DHT22;939;51.426;6.972;2023-06-22T00:58:50;22.50;99.90
1878;DHT22;939;51.426;6.972;2023-06-22T01:01:25;22.40;99.90
1878;DHT22;939;51.426;6.972;2023-06-22T01:03:52;22.50;99.90
1878;DHT22;939;51.426;6.972;2023-06-22T01:06:29;22.50;99.90
1878;DHT22;939;51.426;6.972;2023-06-22T01:09:09;22.40;99.90
1878;DHT22;939;51.426;6.972;2023-06-22T01:11:45;22.40;99.90
1878;DHT22;939;51.426;6.972;2023-06-22T01:14:21;22.40;99.90
1878;DHT22;939;51.426;6.972;2023-06-22T01:16:51;22.40;99.90
1878;DHT22;939;51.426;6.972;2023-06-22T01:19:35;22.40;99.90
1878;DHT22;939;51.426;6.972;2023-06-22T01:22:05;22.40;99.90
1878;DHT22;939;51.426;6.972;2023-06-22T01:24:45;22.30;99.90
1878;DHT22;939;51.426;6.972;2023-06-22T01:27:22;22.30;99.90
1878;DHT22;939;51.426;6.972;2023-06-22T01:29:56;22.30;99.90
1878;DHT22;939;51.426;6.972;2023-06-22T01:32:28;22.30;99.90
1878;DHT22;939;51.426;6.972;2023-06-22T01:35:00;22.30;99.90
1878;DHT22;939;51.426;6.972;2023-06-22T01:37:43;22.30;99.90
1878;DHT22;939;51.426;6.972;2023-06-22T01:40:26;22.30;99.90
1878;DHT22;939;51.426;6.972;2023-06-22T01:42:53;22.30;99.90
1878;DHT22;939;51.426;6.972;2023-06-22T01:45:23;22.30;99.90
1878;DHT22;939;51.426;6.972;2023-06-22T01:51:53;22.30;99.90
1878;DHT22;939;51.426;6.972;2023-06-22T01:54:25;22.20;99.90
1878;DHT22;939;51.426;6.972;2023-06-22T01:57:02;22.20;99.90
1878;DHT22;939;51.426;6.972;2023-06-22T01:59:42;22.20;99.90
1878;DHT22;939;51.426;6.972;2023-06-22T02:02:16;22.20;99.90
1878;DHT22;939;51.426;6.972;2023-06-22T02:04:48;22.20;99.90
1878;DHT22;939;51.426;6.972;2023-06-22T02:07:44;22.20;99.90
1878;DHT22;939;51.426;6.972;2023-06-22T02:10:16;22.10;99.90
1878;DHT22;939;51.426;6.972;2023-06-22T02:13:04;22.10;99.90
1878;DHT22;939;51.426;6.972;2023-06-22T02:15:31;22.20;99.90
1878;DHT22;939;51.426;6.972;2023-06-22T02:17:59;22.20;99.90
1878;DHT22;939;51.426;6.972;2023-06-22T02:20:26;22.20;99.90
1878;DHT22;939;51.426;6.972;2023-06-22T02:22:53;22.20;99.90
1878;DHT22;939;51.426;6.972;2023-06-22T02:25:20;22.20;99.90
1878;DHT22;939;51.426;6.972;2023-06-22T02:27:47;22.20;99.90
1878;DHT22;939;51.426;6.972;2023-06-22T02:30:14;22.10;99.90
1878;DHT22;939;51.426;6.972;2023-06-22T02:32:42;22.10;99.90
1878;DHT22;939;51.426;6.972;2023-06-22T02:35:10;22.10;99.90
1878;DHT22;939;51.426;6.972;2023-06-22T02:37:40;22.10;99.90
1878;DHT22;939;51.426;6.972;2023-06-22T02:40:08;22.10;99.90
1878;DHT22;939;51.426;6.972;2023-06-22T02:42:36;22.10;99.90
1878;DHT22;939;51.426;6.972;2023-06-22T02:45:03;22.10;99.90
1878;DHT22;939;51.426;6.972;2023-06-22T02:47:32;22.10;99.90
1878;DHT22;939;51.426;6.972;2023-06-22T02:49:59;22.00;99.90
1878;DHT22;939;51.426;6.972;2023-06-22T02:52:28;22.00;99.90
1878;DHT22;939;51.426;6.972;2023-06-22T02:54:54;22.00;99.90
1878;DHT22;939;51.426;6.972;2023-06-22T02:57:21;22.00;99.90
1878;DHT22;939;51.426;6.972;2023-06-22T02:59:48;22.00;99.90
1878;DHT22;939;51.426;6.972;2023-06-22T03:02:15;22.00;99.90
1878;DHT22;939;51.426;6.972;2023-06-22T03:04:42;21.90;99.90
1878;DHT22;939;51.426;6.972;2023-06-22T03:07:09;21.90;99.90
1878;DHT22;939;51.426;6.972;2023-06-22T03:09:40;21.90;99.90
1878;DHT22;939;51.426;6.972;2023-06-22T03:12:12;21.80;99.90
1878;DHT22;939;51.426;6.972;2023-06-22T03:14:40;21.80;99.90
1878;DHT22;939;51.426;6.972;2023-06-22T03:17:09;21.80;99.90
1878;DHT22;939;51.426;6.972;2023-06-22T03:19:36;21.70;99.90
1878;DHT22;939;51.426;6.972;2023-06-22T03:22:04;21.70;99.90
1878;DHT22;939;51.426;6.972;2023-06-22T03:24:31;21.70;99.90
1878;DHT22;939;51.426;6.972;2023-06-22T03:27:02;21.70;99.90
1878;DHT22;939;51.426;6.972;2023-06-22T03:32:16;21.60;99.90
1878;DHT22;939;51.426;6.972;2023-06-22T03:34:43;21.60;99.90
1878;DHT22;939;51.426;6.972;2023-06-22T03:37:12;21.60;99.90
1878;DHT22;939;51.426;6.972;2023-06-22T03:39:40;21.60;99.90
1878;DHT22;939;51.426;6.972;2023-06-22T03:42:09;21.60;99.90
1878;DHT22;939;51.426;6.972;2023-06-22T03:44:36;21.50;99.90
1878;DHT22;939;51.426;6.972;2023-06-22T03:47:04;21.50;99.90
1878;DHT22;939;51.426;6.972;2023-06-22T03:49:35;21.50;99.90
1878;DHT22;939;51.426;6.972;2023-06-22T03:52:03;21.50;99.90
1878;DHT22;939;51.426;6.972;2023-06-22T03:54:30;21.50;99.90
1878;DHT22;939;51.426;6.972;2023-06-22T03:56:58;21.50;99.90
1878;DHT22;939;51.426;6.972;2023-06-22T03:59:26;21.50;99.90
1878;DHT22;939;51.426;6.972;2023-06-22T04:01:53;21.50;99.90
1878;DHT22;939;51.426;6.972;2023-06-22T04:04:20;21.50;99.90
1878;DHT22;939;51.426;6.972;2023-06-22T04:06:47;21.50;99.90
1878;DHT22;939;51.426;6.972;2023-06-22T04:09:14;21.50;99.90
1878;DHT22;939;51.426;6.972;2023-06-22T04:11:41;21.50;99.90
1878;DHT22;939;51.426;6.972;2023-06-22T04:14:07;21.60;99.90
1878;DHT22;939;51.426;6.972;2023-06-22T04:16:35;21.60;99.90
1878;DHT22;939;51.426;6.972;2023-06-22T04:19:02;21.60;99.90
1878;DHT22;939;51.426;6.972;2023-06-22T04:21:32;21.60;99.90
1878;DHT22;939;51.426;6.972;2023-06-22T04:24:16;21.60;99.90
1878;DHT22;939;51.426;6.972;2023-06-22T04:26:47;21.70;99.90
1878;DHT22;939;51.426;6.972;2023-06-22T04:29:15;21.70;99.90
1878;DHT22;939;51.426;6.972;2023-06-22T04:31:44;21.70;99.90
1878;DHT22;939;51.426;6.972;2023-06-22T04:34:13;21.70;99.90
1878;DHT22;939;51.426;6.972;2023-06-22T04:36:41;21.70;99.90
1878;DHT22;939;51.426;6.972;2023-06-22T04:39:10;21.70;99.90
1878;DHT22;939;51.426;6.972;2023-06-22T04:41:38;21.70;99.90
1878;DHT22;939;51.426;6.972;2023-06-22T04:44:11;21.80;99.90
1878;DHT22;939;51.426;6.972;2023-06-22T04:46:39;21.80;99.90
1878;DHT22;939;51.426;6.972;2023-06-22T04:49:08;21.70;99.90
1878;DHT22;939;51.426;6.972;2023-06-22T04:51:40;21.70;99.90
1878;DHT22;939;51.426;6.972;2023-06-22T04:54:08;21.80;99.90
1878;DHT22;939;51.426;6.972;2023-06-22T04:56:35;21.90;99.90
1878;DHT22;939;51.426;6.972;2023-06-22T04:59:03;21.90;99.90
1878;DHT22;939;51.426;6.972;2023-06-22T05:01:30;21.90;99.90
1878;DHT22;939;51.426;6.972;2023-06-22T05:03:57;21.90;99.90
1878;DHT22;939;51.426;6.972;2023-06-22T05:06:28;21.90;99.90
1878;DHT22;939;51.426;6.972;2023-06-22T05:08:55;21.90;99.90
1878;DHT22;939;51.426;6.972;2023-06-22T05:11:24;21.80;99.90
1878;DHT22;939;51.426;6.972;2023-06-22T05:13:51;21.80;99.90
1878;DHT22;939;51.426;6.972;2023-06-22T05:16:18;21.90;99.90
1878;DHT22;939;51.426;6.972;2023-06-22T05:18:51;21.90;99.90
1878;DHT22;939;51.426;6.972;2023-06-22T05:21:21;21.90;99.90
1878;DHT22;939;51.426;6.972;2023-06-22T05:23:49;21.90;99.90
1878;DHT22;939;51.426;6.972;2023-06-22T05:26:16;21.80;99.90
1878;DHT22;939;51.426;6.972;2023-06-22T05:28:43;21.80;99.90
1878;DHT22;939;51.426;6.972;2023-06-22T05:31:11;21.80;99.90
1878;DHT22;939;51.426;6.972;2023-06-22T05:33:39;21.80;99.90
1878;DHT22;939;51.426;6.972;2023-06-22T05:36:07;21.80;99.90
1878;DHT22;939;51.426;6.972;2023-06-22T05:38:34;21.80;99.90
1878;DHT22;939;51.426;6.972;2023-06-22T05:44:33;21.80;99.90
1878;DHT22;939;51.426;6.972;2023-06-22T05:47:02;21.80;99.90
1878;DHT22;939;51.426;6.972;2023-06-22T05:49:28;21.80;99.90
1878;DHT22;939;51.426;6.972;2023-06-22T05:52:02;21.70;99.90
1878;DHT22;939;51.426;6.972;2023-06-22T05:54:29;21.70;99.90
1878;DHT22;939;51.426;6.972;2023-06-22T05:57:01;21.70;99.90
1878;DHT22;939;51.426;6.972;2023-06-22T05:59:28;21.70;99.90
1878;DHT22;939;51.426;6.972;2023-06-22T06:01:57;21.70;99.90
1878;DHT22;939;51.426;6.972;2023-06-22T06:04:29;21.70;99.90
1878;DHT22;939;51.426;6.972;2023-06-22T06:06:57;21.60;99.90
1878;DHT22;939;51.426;6.972;2023-06-22T06:09:24;21.70;99.90
1878;DHT22;939;51.426;6.972;2023-06-22T06:11:51;21.60;99.90
1878;DHT22;939;51.426;6.972;2023-06-22T06:14:18;21.60;99.90
1878;DHT22;939;51.426;6.972;2023-06-22T06:16:45;21.60;99.90
1878;DHT22;939;51.426;6.972;2023-06-22T06:19:13;21.60;99.90
1878;DHT22;939;51.426;6.972;2023-06-22T06:21:40;21.60;99.90
1878;DHT22;939;51.426;6.972;2023-06-22T06:24:07;21.60;99.90
1878;DHT22;939;51.426;6.972;2023-06-22T06:26:34;21.60;99.90
1878;DHT22;939;51.426;6.972;2023-06-22T06:29:02;21.60;99.90
1878;DHT22;939;51.426;6.972;2023-06-22T06:31:29;21.50;99.90
1878;DHT22;939;51.426;6.972;2023-06-22T06:33:56;21.60;99.90
1878;DHT22;939;51.426;6.972;2023-06-22T06:36:24;21.60;99.90
1878;DHT22;939;51.426;6.972;2023-06-22T06:38:51;21.70;99.90
1878;DHT22;939;51.426;6.972;2023-06-22T06:41:19;21.70;99.90
1878;DHT22;939;51.426;6.972;2023-06-22T06:43:46;21.80;99.90
1878;DHT22;939;51.426;6.972;2023-06-22T06:46:13;21.80;99.90
1878;DHT22;939;51.426;6.972;2023-06-22T06:48:40;21.80;99.90
1878;DHT22;939;51.426;6.972;2023-06-22T06:51:08;21.90;99.90
1878;DHT22;939;51.426;6.972;2023-06-22T06:53:38;21.90;99.90
1878;DHT22;939;51.426;6.972;2023-06-22T06:56:05;22.00;99.90
1878;DHT22;939;51.426;6.972;2023-06-22T06:58:36;22.00;99.90
1878;DHT22;939;51.426;6.972;2023-06-22T07:04:13;22.00;99.90
1878;DHT22;939;51.426;6.972;2023-06-22T07:07:15;22.00;99.90
1878;DHT22;939;51.426;6.972;2023-06-22T07:10:12;22.10;99.90
1878;DHT22;939;51.426;6.972;2023-06-22T07:12:57;22.10;99.90
1878;DHT22;939;51.426;6.972;2023-06-22T07:16:03;22.10;99.90
1878;DHT22;939;51.426;6.972;2023-06-22T07:18:30;22.10;99.90
1878;DHT22;939;51.426;6.972;2023-06-22T07:20:57;22.20;99.90
1878;DHT22;939;51.426;6.972;2023-06-22T07:23:28;22.20;99.90
1878;DHT22;939;51.426;6.972;2023-06-22T07:26:04;22.10;99.90
1878;DHT22;939;51.426;6.972;2023-06-22T07:28:34;22.10;99.90
1878;DHT22;939;51.426;6.972;2023-06-22T07:31:03;22.10;99.90
1878;DHT22;939;51.426;6.972;2023-06-22T07:33:30;22.00;99.90
1878;DHT22;939;51.426;6.972;2023-06-22T07:35:57;21.80;99.90
1878;DHT22;939;51.426;6.972;2023-06-22T07:38:24;21.90;99.90
1878;DHT22;939;51.426;6.972;2023-06-22T07:40:51;22.00;99.90
1878;DHT22;939;51.426;6.972;2023-06-22T07:43:20;22.00;99.90
1878;DHT22;939;51.426;6.972;2023-06-22T07:45:49;22.10;99.90
1878;DHT22;939;51.426;6.972;2023-06-22T07:48:20;22.10;99.90
1878;DHT22;939;51.426;6.972;2023-06-22T07:50:49;22.10;99.90
1878;DHT22;939;51.426;6.972;2023-06-22T07:53:17;22.20;99.90
1878;DHT22;939;51.426;6.972;2023-06-22T07:55:47;22.10;99.90
1878;DHT22;939;51.426;6.972;2023-06-22T07:58:16;22.20;99.90
1878;DHT22;939;51.426;6.972;2023-06-22T08:00:50;22.20;99.90
1878;DHT22;939;51.426;6.972;2023-06-22T08:03:18;22.20;99.90
1878;DHT22;939;51.426;6.972;2023-06-22T08:05:45;22.20;99.90
1878;DHT22;939;51.426;6.972;2023-06-22T08:08:14;22.30;99.90
1878;DHT22;939;51.426;6.972;2023-06-22T08:10:43;22.20;99.90
1878;DHT22;939;51.426;6.972;2023-06-22T08:13:10;22.20;99.90
1878;DHT22;939;51.426;6.972;2023-06-22T08:15:37;22.20;99.90
1878;DHT22;939;51.426;6.972;2023-06-22T08:18:06;22.20;99.90
1878;DHT22;939;51.426;6.972;2023-06-22T08:20:34;22.20;99.90
1878;DHT22;939;51.426;6.972;2023-06-22T08:23:01;22.20;99.90
1878;DHT22;939;51.426;6.972;2023-06-22T08:25:37;22.10;99.90
1878;DHT22;939;51.426;6.972;2023-06-22T08:28:06;21.90;99.90
1878;DHT22;939;51.426;6.972;2023-06-22T08:30:34;22.00;99.90
1878;DHT22;939;51.426;6.972;2023-06-22T08:33:10;22.10;99.90
1878;DHT22;939;51.426;6.972;2023-06-22T08:35:39;22.10;99.90
1878;DHT22;939;51.426;6.972;2023-06-22T08:38:06;22.10;99.90
1878;DHT22;939;51.426;6.972;2023-06-22T08:40:34;22.10;99.90
1878;DHT22;939;51.426;6.972;2023-06-22T08:43:02;22.20;99.90
1878;DHT22;939;51.426;6.972;2023-06-22T08:45:31;22.10;99.90
1878;DHT22;939;51.426;6.972;2023-06-22T08:47:59;22.10;99.90
1878;DHT22;939;51.426;6.972;2023-06-22T08:50:27;22.20;99.90
1878;DHT22;939;51.426;6.972;2023-06-22T08:52:55;22.20;99.90
1878;DHT22;939;51.426;6.972;2023-06-22T08:55:28;22.30;99.90
1878;DHT22;939;51.426;6.972;2023-06-22T08:57:55;22.30;99.90
1878;DHT22;939;51.426;6.972;2023-06-22T09:00:22;22.30;99.90
1878;DHT22;939;51.426;6.972;2023-06-22T09:02:49;22.40;99.90
1878;DHT22;939;51.426;6.972;2023-06-22T09:05:17;22.50;99.90
1878;DHT22;939;51.426;6.972;2023-06-22T09:07:47;22.50;99.90
1878;DHT22;939;51.426;6.972;2023-06-22T09:10:19;22.60;99.90
1878;DHT22;939;51.426;6.972;2023-06-22T09:12:46;22.60;99.90
1878;DHT22;939;51.426;6.972;2023-06-22T09:15:13;22.70;99.90
1878;DHT22;939;51.426;6.972;2023-06-22T09:17:40;22.80;99.90
1878;DHT22;939;51.426;6.972;2023-06-22T09:20:11;22.90;99.90
1878;DHT22;939;51.426;6.972;2023-06-22T09:22:41;23.00;99.90
1878;DHT22;939;51.426;6.972;2023-06-22T09:25:12;23.10;99.90
1878;DHT22;939;51.426;6.972;2023-06-22T09:27:47;23.20;99.90
1878;DHT22;939;51.426;6.972;2023-06-22T09:30:21;23.40;99.90
1878;DHT22;939;51.426;6.972;2023-06-22T09:32:59;23.70;99.90
1878;DHT22;939;51.426;6.972;2023-06-22T19:02:58;20.70;99.90
1878;DHT22;939;51.426;6.972;2023-06-22T19:05:37;20.70;99.90
1878;DHT22;939;51.426;6.972;2023-06-22T19:08:05;20.50;99.90
1878;DHT22;939;51.426;6.972;2023-06-22T19:10:39;20.60;99.90
1878;DHT22;939;51.426;6.972;2023-06-22T19:13:27;20.50;99.90
1878;DHT22;939;51.426;6.972;2023-06-22T19:15:58;20.40;99.90
1878;DHT22;939;51.426;6.972;2023-06-22T19:18:31;20.50;99.90
1878;DHT22;939;51.426;6.972;2023-06-22T19:21:00;20.60;99.90
1878;DHT22;939;51.426;6.972;2023-06-22T19:23:31;20.60;99.90
1878;DHT22;939;51.426;6.972;2023-06-22T19:26:02;20.60;99.90
1878;DHT22;939;51.426;6.972;2023-06-22T19:28:34;20.50;99.90
1878;DHT22;939;51.426;6.972;2023-06-22T19:31:06;20.50;99.90
1878;DHT22;939;51.426;6.972;2023-06-22T19:33:37;20.50;99.90
1878;DHT22;939;51.426;6.972;2023-06-22T19:36:11;20.50;99.90
1878;DHT22;939;51.426;6.972;2023-06-22T19:38:59;20.50;99.90
1878;DHT22;939;51.426;6.972;2023-06-22T19:41:27;20.50;99.90
1878;DHT22;939;51.426;6.972;2023-06-22T19:44:07;20.40;99.90
1878;DHT22;939;51.426;6.972;2023-06-22T19:46:34;20.30;99.90
1878;DHT22;939;51.426;6.972;2023-06-22T19:49:02;20.10;99.90
1878;DHT22;939;51.426;6.972;2023-06-22T19:51:32;20.10;99.90
1878;DHT22;939;51.426;6.972;2023-06-22T19:54:18;20.10;99.90
1878;DHT22;939;51.426;6.972;2023-06-22T19:56:45;20.10;99.90
1878;DHT22;939;51.426;6.972;2023-06-22T19:59:32;20.00;99.90
1878;DHT22;939;51.426;6.972;2023-06-22T20:02:00;20.00;99.90
1878;DHT22;939;51.426;6.972;2023-06-22T20:04:36;20.00;99.90
1878;DHT22;939;51.426;6.972;2023-06-22T20:07:09;19.90;99.90
1878;DHT22;939;51.426;6.972;2023-06-22T20:09:37;19.70;99.90
1878;DHT22;939;51.426;6.972;2023-06-22T20:12:22;19.70;99.90
1878;DHT22;939;51.426;6.972;2023-06-22T20:14:54;19.60;99.90
1878;DHT22;939;51.426;6.972;2023-06-22T20:17:22;19.60;99.90
1878;DHT22;939;51.426;6.972;2023-06-22T20:20:07;19.60;99.90
1878;DHT22;939;51.426;6.972;2023-06-22T20:22:54;19.40;99.90
1878;DHT22;939;51.426;6.972;2023-06-22T20:25:28;19.40;99.90
1878;DHT22;939;51.426;6.972;2023-06-22T20:28:17;19.40;99.90
1878;DHT22;939;51.426;6.972;2023-06-22T20:31:03;19.40;99.90
1878;DHT22;939;51.426;6.972;2023-06-22T20:33:32;19.40;99.90
1878;DHT22;939;51.426;6.972;2023-06-22T20:39:05;19.30;99.90
1878;DHT22;939;51.426;6.972;2023-06-22T20:41:45;19.20;99.90
1878;DHT22;939;51.426;6.972;2023-06-22T20:44:49;19.20;99.90
1878;DHT22;939;51.426;6.972;2023-06-22T20:47:39;19.20;99.90
1878;DHT22;939;51.426;6.972;2023-06-22T20:57:32;19.20;99.90
